Time;durP1;ratioP1;P1;durP2;ratioP2;P2;SDS_P1;SDS_P2;PMS_P1;PMS_P2;Temp;Humidity;BMP_temperature;BMP_pressure;BME280_temperature;BME280_humidity;BME280_pressure;Samples;Min_cycle;Max_cycle;Signal;HPM_P1;HPM_P2
2022/07/26 00:01:30;;;;;;;7.70;3.70;;;27.10;23.30;;;;;;4977935;28;20588;-70
2022/07/26 00:03:56;;;;;;;7.47;3.93;;;27.20;23.70;;;;;;4968577;28;20671;-69
2022/07/26 00:06:22;;;;;;;8.20;3.83;;;26.90;23.60;;;;;;4975042;28;20182;-70
2022/07/26 00:08:48;;;;;;;7.53;3.60;;;27.00;23.90;;;;;;4975980;28;20798;-70
2022/07/26 00:11:14;;;;;;;17.20;3.93;;;27.00;23.80;;;;;;4967746;28;20269;-70
2022/07/26 00:13:40;;;;;;;18.57;3.60;;;26.90;23.80;;;;;;4974443;28;20553;-70
2022/07/26 00:16:05;;;;;;;8.83;4.20;;;26.90;24.10;;;;;;4974463;28;20430;-70
2022/07/26 00:18:32;;;;;;;9.43;3.80;;;26.20;25.00;;;;;;4975444;28;20214;-70
2022/07/26 00:20:57;;;;;;;5.93;3.63;;;26.00;25.40;;;;;;4974210;28;20185;-70
2022/07/26 00:23:23;;;;;;;10.00;3.97;;;26.20;25.10;;;;;;4974075;28;20437;-70
2022/07/26 00:25:49;;;;;;;18.13;3.90;;;26.40;25.30;;;;;;4970113;28;20194;-69
2022/07/26 00:28:14;;;;;;;12.33;3.37;;;26.30;25.10;;;;;;4976281;28;20183;-69
2022/07/26 00:30:40;;;;;;;5.13;3.47;;;26.20;25.30;;;;;;4974974;28;20650;-70
2022/07/26 00:33:06;;;;;;;14.50;3.83;;;25.80;26.00;;;;;;4974558;28;20178;-70
2022/07/26 00:35:32;;;;;;;8.00;3.47;;;26.00;25.90;;;;;;4974494;28;20213;-70
2022/07/26 00:37:58;;;;;;;6.70;3.30;;;25.80;26.10;;;;;;4956996;28;20210;-70
2022/07/26 00:40:23;;;;;;;5.50;3.27;;;25.70;26.50;;;;;;4975015;28;20416;-69
2022/07/26 00:42:49;;;;;;;6.90;3.33;;;25.60;26.70;;;;;;4974285;28;20181;-69
2022/07/26 00:45:15;;;;;;;10.03;3.80;;;25.70;26.60;;;;;;4974951;28;20286;-70
2022/07/26 00:47:41;;;;;;;10.53;3.53;;;26.10;26.00;;;;;;4974874;28;20194;-70
2022/07/26 00:50:10;;;;;;;7.63;3.77;;;26.20;26.10;;;;;;4960571;28;20947;-70
2022/07/26 00:52:36;;;;;;;13.30;3.20;;;26.40;25.50;;;;;;4969241;28;20464;-70
2022/07/26 00:55:03;;;;;;;8.23;3.40;;;25.90;26.10;;;;;;4974019;28;20457;-70
2022/07/26 00:57:29;;;;;;;7.50;3.40;;;25.90;26.30;;;;;;4968149;28;20550;-70
2022/07/26 00:59:54;;;;;;;8.07;3.90;;;26.10;26.10;;;;;;4976593;28;20434;-70
2022/07/26 01:02:21;;;;;;;10.17;4.20;;;26.10;26.30;;;;;;4975332;28;20548;-70
2022/07/26 01:04:46;;;;;;;8.27;4.73;;;26.50;25.90;;;;;;4972147;28;20733;-70
2022/07/26 01:07:12;;;;;;;15.43;4.07;;;26.80;25.20;;;;;;4973224;28;20430;-70
2022/07/26 01:09:39;;;;;;;7.43;3.77;;;27.10;24.40;;;;;;4974220;28;20706;-69
2022/07/26 01:12:05;;;;;;;6.53;3.97;;;26.70;24.90;;;;;;4973440;28;20542;-70
2022/07/26 01:14:31;;;;;;;21.80;4.03;;;26.10;26.50;;;;;;4973383;28;20528;-70
2022/07/26 01:16:56;;;;;;;8.30;3.50;;;26.10;26.10;;;;;;4973688;28;20440;-70
2022/07/26 01:19:22;;;;;;;7.60;3.70;;;26.20;26.00;;;;;;4971980;28;20261;-70
2022/07/26 01:21:49;;;;;;;6.37;4.10;;;26.00;26.20;;;;;;4972220;28;20186;-69
2022/07/26 01:24:15;;;;;;;7.47;3.73;;;25.60;27.00;;;;;;4973146;28;20194;-70
2022/07/26 01:26:41;;;;;;;7.27;4.20;;;25.60;27.40;;;;;;4974905;28;20488;-70
2022/07/26 01:29:07;;;;;;;7.90;4.07;;;25.40;27.80;;;;;;4972120;28;20433;-70
2022/07/26 01:31:33;;;;;;;8.27;3.60;;;25.50;27.30;;;;;;4972493;28;20273;-70
2022/07/26 01:33:58;;;;;;;5.40;4.10;;;25.40;27.60;;;;;;4973718;28;20206;-70
2022/07/26 01:36:24;;;;;;;9.50;4.00;;;25.10;28.20;;;;;;4975067;28;20208;-70
2022/07/26 01:38:50;;;;;;;17.70;4.73;;;24.90;28.70;;;;;;4972041;28;20206;-69
2022/07/26 01:41:15;;;;;;;5.87;4.20;;;25.20;29.20;;;;;;4973876;28;20183;-70
2022/07/26 01:43:41;;;;;;;15.90;4.67;;;24.80;29.40;;;;;;4966609;28;20214;-69
2022/07/26 01:46:08;;;;;;;9.47;4.00;;;25.00;29.50;;;;;;4974309;28;20182;-70
2022/07/26 01:48:34;;;;;;;10.10;4.10;;;25.40;28.50;;;;;;4975299;28;20649;-70
2022/07/26 01:51:00;;;;;;;7.63;4.23;;;25.60;28.20;;;;;;4971610;28;20437;-70
2022/07/26 01:53:26;;;;;;;9.17;4.47;;;25.40;28.60;;;;;;4972376;28;20448;-70
2022/07/26 01:55:52;;;;;;;8.37;3.83;;;25.60;29.10;;;;;;4972856;28;20449;-70
2022/07/26 01:58:18;;;;;;;5.13;3.37;;;26.30;27.70;;;;;;4965735;28;20210;-70
2022/07/26 02:00:43;;;;;;;5.83;3.47;;;25.90;28.00;;;;;;4971524;28;20965;-69
2022/07/26 02:03:09;;;;;;;8.50;3.90;;;25.80;27.80;;;;;;4973096;28;20174;-70
2022/07/26 02:05:35;;;;;;;16.03;3.80;;;25.60;28.40;;;;;;4974045;28;20198;-70
2022/07/26 02:08:00;;;;;;;4.43;3.10;;;25.40;28.60;;;;;;4972827;28;20746;-70
2022/07/26 02:10:59;;;;;;;13.90;3.50;;;25.10;29.40;;;;;;4968241;28;20599;-70
2022/07/26 02:13:15;;;;;;;4.83;3.30;;;24.70;30.00;;;;;;4972154;28;20229;-70
2022/07/26 02:15:40;;;;;;;4.13;3.20;;;24.90;30.00;;;;;;4972497;28;20539;-70
2022/07/26 02:18:06;;;;;;;8.57;3.93;;;25.70;30.00;;;;;;4973154;28;20977;-70
2022/07/26 02:20:32;;;;;;;6.80;3.80;;;25.30;29.70;;;;;;4972324;28;20599;-70
2022/07/26 02:23:00;;;;;;;4.37;3.27;;;25.50;28.80;;;;;;4971817;28;20261;-70
2022/07/26 02:25:25;;;;;;;7.20;3.57;;;25.70;28.40;;;;;;4973115;28;20206;-70
2022/07/26 02:27:51;;;;;;;10.13;3.53;;;25.50;28.80;;;;;;4964932;28;20446;-70
2022/07/26 02:30:17;;;;;;;5.30;3.47;;;25.50;29.20;;;;;;4965341;28;20194;-69
2022/07/26 02:32:42;;;;;;;5.87;3.27;;;25.60;29.10;;;;;;4971959;28;20186;-70
2022/07/26 02:35:09;;;;;;;4.70;3.50;;;25.50;29.00;;;;;;4974873;28;20210;-70
2022/07/26 02:37:34;;;;;;;5.90;3.70;;;25.30;29.60;;;;;;4972658;28;20577;-70
2022/07/26 02:40:01;;;;;;;3.63;3.40;;;25.00;30.20;;;;;;4972690;28;20429;-70
2022/07/26 02:42:27;;;;;;;8.13;3.93;;;24.90;30.00;;;;;;4972296;28;20182;-69
2022/07/26 02:44:53;;;;;;;7.13;3.87;;;24.60;30.70;;;;;;4958635;28;20496;-68
2022/07/26 02:47:18;;;;;;;8.93;3.37;;;24.40;31.50;;;;;;4972840;28;20469;-70
2022/07/26 02:49:44;;;;;;;5.00;3.80;;;24.50;31.30;;;;;;4973275;28;20183;-70
2022/07/26 02:52:10;;;;;;;17.73;3.60;;;24.50;31.30;;;;;;4971873;28;20265;-70
2022/07/26 02:54:36;;;;;;;4.73;3.27;;;24.60;31.20;;;;;;4972572;28;20210;-70
2022/07/26 02:57:01;;;;;;;4.67;3.00;;;24.40;31.50;;;;;;4974399;28;20504;-70
2022/07/26 02:59:27;;;;;;;3.87;3.17;;;24.50;31.70;;;;;;4972483;28;20222;-70
2022/07/26 03:01:53;;;;;;;6.50;3.10;;;24.20;32.20;;;;;;4971568;28;20189;-70
2022/07/26 03:04:18;;;;;;;5.40;3.47;;;24.30;32.10;;;;;;4971903;28;20836;-70
2022/07/26 03:06:44;;;;;;;4.57;3.10;;;24.70;31.00;;;;;;4972505;28;20189;-70
2022/07/26 03:09:09;;;;;;;10.33;3.30;;;24.90;30.70;;;;;;4971726;28;20638;-70
2022/07/26 03:11:35;;;;;;;3.83;2.80;;;24.90;30.50;;;;;;4971784;28;20186;-70
2022/07/26 03:14:01;;;;;;;4.20;3.20;;;24.70;31.30;;;;;;4972151;28;20714;-70
2022/07/26 03:16:26;;;;;;;9.20;3.17;;;24.10;32.50;;;;;;4972055;28;20197;-70
2022/07/26 03:18:52;;;;;;;6.13;3.40;;;24.10;32.60;;;;;;4972622;28;20642;-70
2022/07/26 03:21:17;;;;;;;6.80;3.00;;;24.60;31.90;;;;;;4971590;28;20654;-70
2022/07/26 03:23:43;;;;;;;7.73;3.03;;;24.30;32.20;;;;;;4972408;28;20565;-69
2022/07/26 03:26:09;;;;;;;8.07;3.43;;;24.30;32.40;;;;;;4971958;28;20186;-70
2022/07/26 03:28:35;;;;;;;7.73;3.10;;;24.20;32.80;;;;;;4973560;28;20186;-70
2022/07/26 03:31:01;;;;;;;10.40;3.20;;;24.70;31.90;;;;;;4976152;28;20217;-69
2022/07/26 03:33:28;;;;;;;8.73;3.40;;;24.90;31.10;;;;;;4968029;28;20519;-69
2022/07/26 03:35:54;;;;;;;5.63;3.00;;;24.90;31.20;;;;;;4973057;28;20475;-70
2022/07/26 03:38:19;;;;;;;5.10;2.90;;;25.00;30.80;;;;;;4975339;28;20469;-70
2022/07/26 03:40:45;;;;;;;3.77;2.90;;;24.60;32.00;;;;;;4960194;28;20221;-69
2022/07/26 03:43:10;;;;;;;4.33;2.83;;;24.70;32.00;;;;;;4975197;28;20186;-69
2022/07/26 03:45:36;;;;;;;4.80;3.50;;;24.40;32.50;;;;;;4972236;28;20463;-69
2022/07/26 03:48:02;;;;;;;5.83;3.20;;;24.70;31.90;;;;;;4967953;28;20183;-70
2022/07/26 03:50:27;;;;;;;4.27;3.27;;;24.50;32.50;;;;;;4975836;28;20337;-70
2022/07/26 03:52:53;;;;;;;5.60;3.30;;;24.50;32.10;;;;;;4975551;28;20184;-70
2022/07/26 03:58:03;;;;;;;4.73;3.17;;;24.30;32.90;;;;;;4974480;28;20223;-70
2022/07/26 04:00:28;;;;;;;6.30;3.10;;;24.00;33.70;;;;;;4976098;28;20434;-69
2022/07/26 04:02:54;;;;;;;3.43;3.07;;;23.80;34.30;;;;;;4975299;28;20178;-70
2022/07/26 04:05:19;;;;;;;4.33;3.33;;;23.90;34.00;;;;;;4975685;28;20194;-70
2022/07/26 04:07:45;;;;;;;5.83;3.07;;;24.40;33.00;;;;;;4968273;28;20903;-69
2022/07/26 04:10:14;;;;;;;4.57;3.30;;;24.50;32.30;;;;;;4977677;28;20281;-70
2022/07/26 04:12:40;;;;;;;7.40;3.03;;;24.50;32.20;;;;;;4965059;28;20506;-70
2022/07/26 04:15:06;;;;;;;4.93;3.40;;;24.90;31.60;;;;;;4975338;28;20456;-70
2022/07/26 04:17:39;;;;;;;5.37;3.80;;;25.20;31.00;;;;;;4974790;28;20837;-70
2022/07/26 04:20:06;;;;;;;11.40;4.00;;;25.80;29.60;;;;;;4974879;28;20930;-69
2022/07/26 04:22:36;;;;;;;9.90;4.03;;;26.00;28.80;;;;;;4973007;28;20445;-70
2022/07/26 04:25:03;;;;;;;11.43;4.63;;;25.10;30.60;;;;;;4972714;28;20465;-70
2022/07/26 04:27:29;;;;;;;5.07;3.93;;;25.50;29.80;;;;;;4975537;28;20428;-69
2022/07/26 04:29:55;;;;;;;4.90;3.30;;;24.90;31.00;;;;;;4974972;28;20439;-70
2022/07/26 04:32:20;;;;;;;14.97;3.43;;;24.70;31.70;;;;;;4974920;28;20925;-70
2022/07/26 04:34:46;;;;;;;4.70;3.53;;;25.10;31.70;;;;;;4967017;28;20618;-70
2022/07/26 04:37:11;;;;;;;7.87;3.30;;;25.20;30.70;;;;;;4975462;28;20190;-69
2022/07/26 04:39:37;;;;;;;4.20;3.07;;;25.20;30.50;;;;;;4973367;28;20210;-70
2022/07/26 04:42:03;;;;;;;7.90;3.60;;;25.30;31.10;;;;;;4973886;28;20233;-71
2022/07/26 04:44:28;;;;;;;5.30;2.97;;;25.60;29.90;;;;;;4969128;28;20206;-70
2022/07/26 04:46:54;;;;;;;4.73;3.40;;;25.50;30.60;;;;;;4970928;28;20183;-70
2022/07/26 04:49:19;;;;;;;4.23;3.20;;;25.50;29.80;;;;;;4974551;28;20191;-70
2022/07/26 04:51:45;;;;;;;7.47;3.93;;;25.60;29.50;;;;;;4991429;23;20312;-76
2022/07/26 04:54:11;;;;;;;7.23;3.23;;;25.80;29.40;;;;;;4988015;28;20252;-72
2022/07/26 04:56:36;;;;;;;6.87;3.20;;;26.00;29.10;;;;;;4988155;28;20180;-73
2022/07/26 04:59:02;;;;;;;8.87;3.70;;;26.20;28.90;;;;;;4993799;28;20526;-73
2022/07/26 05:01:27;;;;;;;5.80;3.50;;;25.70;29.20;;;;;;4991904;28;20213;-73
2022/07/26 05:03:53;;;;;;;4.87;3.57;;;25.20;30.00;;;;;;4984611;28;20170;-72
2022/07/26 05:06:19;;;;;;;4.93;3.70;;;24.50;31.70;;;;;;4975775;28;20185;-73
2022/07/26 05:08:44;;;;;;;4.63;3.40;;;24.30;32.30;;;;;;4976139;28;20716;-72
2022/07/26 05:11:10;;;;;;;5.43;3.60;;;23.90;33.70;;;;;;4974668;28;20194;-72
2022/07/26 05:13:36;;;;;;;10.53;3.40;;;24.00;33.80;;;;;;4980107;28;20223;-72
2022/07/26 05:16:01;;;;;;;4.80;3.37;;;24.00;33.60;;;;;;4977143;28;20179;-72
2022/07/26 05:18:28;;;;;;;3.60;3.20;;;23.60;35.10;;;;;;4980684;28;20202;-73
2022/07/26 05:20:54;;;;;;;5.30;4.17;;;24.30;33.60;;;;;;4981223;28;20281;-73
2022/07/26 05:23:20;;;;;;;7.10;3.70;;;24.50;33.00;;;;;;4973460;28;20508;-73
2022/07/26 05:25:46;;;;;;;5.97;4.00;;;24.40;33.50;;;;;;4987228;28;20178;-73
2022/07/26 05:28:11;;;;;;;5.17;3.60;;;23.80;34.60;;;;;;4973054;28;20217;-72
2022/07/26 05:30:37;;;;;;;9.20;4.03;;;23.60;35.60;;;;;;4982184;28;20467;-73
2022/07/26 05:33:03;;;;;;;7.23;3.60;;;24.00;35.20;;;;;;4983700;28;20252;-72
2022/07/26 05:35:28;;;;;;;3.67;3.50;;;23.90;34.80;;;;;;4973537;28;20263;-72
2022/07/26 05:37:55;;;;;;;5.47;3.67;;;23.50;36.40;;;;;;4972998;28;20207;-73
2022/07/26 05:40:21;;;;;;;6.97;3.93;;;;;;;;;;4972852;28;20662;-75
2022/07/26 05:42:47;;;;;;;6.70;4.33;;;23.20;37.30;;;;;;4972383;28;20484;-73
2022/07/26 05:45:13;;;;;;;5.63;3.40;;;;;;;;;;4973225;28;20430;-74
2022/07/26 05:47:39;;;;;;;5.30;4.00;;;23.50;36.50;;;;;;4974918;28;20421;-74
2022/07/26 05:50:05;;;;;;;7.27;3.70;;;23.70;36.50;;;;;;4973818;28;20430;-73
2022/07/26 05:52:31;;;;;;;7.50;3.77;;;24.10;35.70;;;;;;4977733;28;20252;-73
2022/07/26 05:54:57;;;;;;;5.47;3.87;;;24.10;36.20;;;;;;4976622;28;20459;-76
2022/07/26 05:57:23;;;;;;;9.10;3.73;;;24.60;34.90;;;;;;4968832;28;20461;-73
2022/07/26 05:59:49;;;;;;;4.10;3.73;;;23.60;36.10;;;;;;4991926;28;20434;-74
2022/07/26 06:02:14;;;;;;;6.53;3.90;;;23.60;36.70;;;;;;4976101;28;20584;-73
2022/07/26 06:04:40;;;;;;;5.00;4.20;;;24.40;34.40;;;;;;4984452;28;20174;-72
2022/07/26 06:07:06;;;;;;;7.83;4.33;;;24.40;34.90;;;;;;4991859;28;20178;-75
2022/07/26 06:09:31;;;;;;;7.53;4.17;;;24.30;34.90;;;;;;4981666;28;20261;-74
2022/07/26 06:11:57;;;;;;;8.77;4.03;;;24.30;35.50;;;;;;4973276;28;20198;-75
2022/07/26 06:14:23;;;;;;;4.40;4.00;;;24.60;34.60;;;;;;4980745;28;20290;-72
2022/07/26 06:16:49;;;;;;;8.23;4.50;;;24.00;35.70;;;;;;4985796;28;20181;-72
2022/07/26 06:19:15;;;;;;;10.20;4.17;;;23.50;36.60;;;;;;4983514;28;20830;-72
2022/07/26 06:21:41;;;;;;;5.07;4.23;;;23.40;38.00;;;;;;4976498;28;20433;-72
2022/07/26 06:24:07;;;;;;;5.70;4.10;;;23.60;36.90;;;;;;4984260;28;20420;-72
2022/07/26 06:26:33;;;;;;;10.70;4.23;;;23.20;37.70;;;;;;4983391;28;20182;-72
2022/07/26 06:28:58;;;;;;;5.83;4.10;;;22.90;38.90;;;;;;4980525;28;20191;-72
2022/07/26 06:31:24;;;;;;;6.67;4.57;;;23.10;38.80;;;;;;4980617;28;20825;-73
2022/07/26 06:33:50;;;;;;;9.47;4.70;;;;;;;;;;4980234;28;20186;-73
2022/07/26 06:36:16;;;;;;;7.10;4.70;;;23.80;36.50;;;;;;4974538;28;20249;-73
2022/07/26 06:38:42;;;;;;;7.43;5.60;;;23.50;36.80;;;;;;4983565;28;20870;-73
2022/07/26 06:41:08;;;;;;;6.23;4.60;;;23.30;37.70;;;;;;4977695;28;20572;-72
2022/07/26 06:43:33;;;;;;;8.77;4.63;;;23.60;37.40;;;;;;4981367;28;20178;-72
2022/07/26 06:45:59;;;;;;;7.23;4.87;;;23.50;37.30;;;;;;4983710;28;20180;-72
2022/07/26 06:48:24;;;;;;;8.10;5.00;;;23.20;37.10;;;;;;4991666;28;20286;-72
2022/07/26 06:50:50;;;;;;;8.27;5.17;;;;;;;;;;4982388;28;20228;-74
2022/07/26 06:53:16;;;;;;;7.23;5.13;;;23.30;37.40;;;;;;4977473;28;20530;-74
2022/07/26 06:55:42;;;;;;;5.90;5.17;;;23.20;37.40;;;;;;4979952;28;20492;-73
2022/07/26 06:58:08;;;;;;;9.17;5.30;;;23.20;37.40;;;;;;4974620;28;20201;-72
2022/07/26 07:00:33;;;;;;;6.60;5.40;;;23.30;37.40;;;;;;4971422;28;20488;-72
2022/07/26 07:02:59;;;;;;;8.40;5.40;;;23.10;37.30;;;;;;4972475;28;20190;-72
2022/07/26 07:05:25;;;;;;;9.63;5.67;;;;;;;;;;4976424;28;20300;-73
2022/07/26 07:07:51;;;;;;;10.10;5.83;;;;;;;;;;4973747;28;20676;-74
2022/07/26 07:10:17;;;;;;;21.70;6.40;;;23.20;38.40;;;;;;4972770;28;20479;-74
2022/07/26 07:12:43;;;;;;;7.90;5.10;;;23.20;37.70;;;;;;4977850;28;20462;-73
2022/07/26 07:15:10;;;;;;;13.90;4.90;;;23.30;36.20;;;;;;4975739;28;20182;-73
2022/07/26 07:17:36;;;;;;;8.87;5.77;;;23.10;37.60;;;;;;4991232;28;20432;-73
2022/07/26 07:20:04;;;;;;;9.20;5.53;;;23.30;37.10;;;;;;4972527;28;20499;-73
2022/07/26 07:22:30;;;;;;;10.27;5.60;;;23.20;36.70;;;;;;4968964;28;20213;-72
2022/07/26 07:24:56;;;;;;;8.77;5.10;;;23.20;36.90;;;;;;4986847;28;20488;-72
2022/07/26 07:27:22;;;;;;;8.07;5.13;;;23.20;37.30;;;;;;4982649;28;20456;-72
2022/07/26 07:29:48;;;;;;;11.67;5.97;;;;;;;;;;4973614;28;20190;-72
2022/07/26 07:32:14;;;;;;;8.87;5.80;;;;;;;;;;4971384;28;20210;-73
2022/07/26 07:34:40;;;;;;;10.20;5.60;;;;;;;;;;4983376;28;20424;-74
2022/07/26 07:37:05;;;;;;;9.47;5.37;;;24.00;35.20;;;;;;4975983;28;20444;-74
2022/07/26 07:39:31;;;;;;;9.40;4.93;;;23.70;35.80;;;;;;4969889;28;20477;-72
2022/07/26 07:41:56;;;;;;;9.43;5.57;;;23.50;35.90;;;;;;4981312;28;20206;-71
2022/07/26 07:44:22;;;;;;;12.20;5.57;;;23.60;36.00;;;;;;4972182;28;20175;-73
2022/07/26 07:46:48;;;;;;;14.33;5.97;;;24.10;34.20;;;;;;4982220;28;20189;-74
2022/07/26 07:49:14;;;;;;;8.10;5.40;;;24.50;32.80;;;;;;4983365;28;20658;-73
2022/07/26 07:51:40;;;;;;;6.97;5.57;;;24.50;33.50;;;;;;4976441;28;20609;-74
2022/07/26 07:54:06;;;;;;;7.80;5.30;;;24.50;32.50;;;;;;4971344;28;20453;-71
2022/07/26 07:56:32;;;;;;;6.40;5.20;;;;;;;;;;4969099;28;20242;-73
2022/07/26 07:58:58;;;;;;;15.60;5.73;;;23.80;34.50;;;;;;4972030;28;20705;-72
2022/07/26 08:01:23;;;;;;;8.10;5.77;;;23.70;34.10;;;;;;4969974;28;20449;-73
2022/07/26 08:03:49;;;;;;;7.17;5.47;;;24.10;32.30;;;;;;4962951;28;20187;-73
2022/07/26 08:06:15;;;;;;;6.80;5.00;;;;;;;;;;4969400;28;20191;-73
2022/07/26 08:08:41;;;;;;;12.53;5.33;;;;;;;;;;4968943;28;20241;-73
2022/07/26 08:11:06;;;;;;;8.00;5.00;;;25.00;31.40;;;;;;4970111;28;21106;-73
2022/07/26 08:13:32;;;;;;;10.20;4.93;;;24.60;30.50;;;;;;4978171;28;20436;-73
2022/07/26 08:15:58;;;;;;;9.23;4.93;;;24.10;30.50;;;;;;4972965;28;20187;-72
2022/07/26 08:18:24;;;;;;;11.90;4.43;;;24.30;30.60;;;;;;4978951;28;20229;-73
2022/07/26 08:20:52;;;;;;;5.73;5.07;;;25.10;29.10;;;;;;4983739;28;20684;-73
2022/07/26 08:23:19;;;;;;;12.20;5.10;;;25.80;27.80;;;;;;4979239;28;20429;-73
2022/07/26 08:25:44;;;;;;;7.83;4.73;;;;;;;;;;4984582;28;20516;-73
2022/07/26 08:28:10;;;;;;;10.80;4.37;;;25.10;26.90;;;;;;4982765;28;20520;-73
2022/07/26 08:30:36;;;;;;;10.17;4.37;;;;;;;;;;4979508;28;20975;-73
2022/07/26 08:33:02;;;;;;;13.10;4.40;;;24.60;27.50;;;;;;4980600;28;20197;-73
2022/07/26 08:35:30;;;;;;;11.60;4.20;;;24.40;27.90;;;;;;4975394;28;20432;-73
2022/07/26 08:37:56;;;;;;;8.60;4.03;;;24.70;27.20;;;;;;4980662;28;20206;-73
2022/07/26 08:40:22;;;;;;;9.73;3.90;;;25.10;26.60;;;;;;4984934;28;20428;-73
2022/07/26 08:42:53;;;;;;;6.93;3.93;;;25.50;25.80;;;;;;4986003;28;20459;-73
2022/07/26 08:45:29;;;;;;;6.13;4.00;;;24.90;26.50;;;;;;4978714;28;20301;-72
2022/07/26 08:47:56;;;;;;;16.40;6.10;;;24.90;26.90;;;;;;4973258;28;20483;-73
2022/07/26 08:50:23;;;;;;;7.60;3.70;;;24.80;27.10;;;;;;4979549;28;20914;-72
2022/07/26 08:52:50;;;;;;;20.33;3.87;;;24.90;26.40;;;;;;4988395;28;20566;-72
2022/07/26 08:55:18;;;;;;;7.80;3.70;;;25.00;26.50;;;;;;4988478;28;20445;-73
2022/07/26 08:57:44;;;;;;;5.80;2.93;;;24.90;25.60;;;;;;4992565;28;20959;-72
2022/07/26 09:00:31;;;;;;;7.30;3.57;;;24.60;25.00;;;;;;4985489;28;20436;-74
2022/07/26 09:03:01;;;;;;;9.90;3.77;;;24.70;24.90;;;;;;4982898;28;20479;-72
2022/07/26 09:05:31;;;;;;;9.10;3.43;;;25.10;24.90;;;;;;4974801;28;20925;-72
2022/07/26 09:07:58;;;;;;;6.63;3.33;;;25.60;24.00;;;;;;4981333;28;20437;-73
2022/07/26 09:10:24;;;;;;;6.27;3.50;;;26.00;23.50;;;;;;4979177;28;20432;-72
2022/07/26 09:12:57;;;;;;;6.37;3.50;;;26.10;23.20;;;;;;4981932;28;20491;-74
2022/07/26 09:15:26;;;;;;;4.70;3.30;;;25.60;23.00;;;;;;4981068;28;20434;-73
2022/07/26 09:17:55;;;;;;;24.73;3.87;;;25.30;24.10;;;;;;4975622;28;20461;-72
2022/07/26 09:20:28;;;;;;;7.50;3.63;;;25.60;23.10;;;;;;4982080;28;20461;-73
2022/07/26 09:22:58;;;;;;;5.50;3.50;;;25.50;23.20;;;;;;4989153;28;20511;-72
2022/07/26 09:25:24;;;;;;;9.20;3.37;;;25.50;23.50;;;;;;4973412;28;20893;-72
2022/07/26 09:27:51;;;;;;;3.70;3.00;;;25.50;23.40;;;;;;4979146;28;20440;-74
2022/07/26 09:30:18;;;;;;;6.83;3.43;;;25.40;24.00;;;;;;4990615;28;20982;-73
2022/07/26 09:33:06;;;;;;;7.60;3.60;;;25.50;24.50;;;;;;4984635;28;20429;-73
2022/07/26 09:35:34;;;;;;;9.17;4.20;;;25.00;22.70;;;;;;4963504;28;20839;-72
2022/07/26 09:38:00;;;;;;;5.83;2.80;;;25.50;22.70;;;;;;4974131;28;20458;-72
2022/07/26 09:40:36;;;;;;;5.73;3.60;;;26.30;21.50;;;;;;4974756;28;20445;-73
2022/07/26 09:43:04;;;;;;;6.13;3.00;;;26.40;21.50;;;;;;4984204;28;20946;-73
2022/07/26 09:45:31;;;;;;;8.30;3.47;;;26.70;20.30;;;;;;4982517;28;20460;-73
2022/07/26 09:47:57;;;;;;;21.97;3.10;;;;;;;;;;4978389;28;20439;-73
2022/07/26 09:50:26;;;;;;;5.97;3.00;;;25.60;22.50;;;;;;4984743;28;20509;-72
2022/07/26 09:53:07;;;;;;;8.73;3.23;;;25.80;22.00;;;;;;4975967;28;20982;-72
2022/07/26 09:55:39;;;;;;;6.30;3.67;;;25.80;21.70;;;;;;4982995;28;20883;-72
2022/07/26 09:58:05;;;;;;;11.10;3.03;;;;;;;;;;4973546;28;20465;-73
2022/07/26 10:00:32;;;;;;;8.73;3.10;;;26.30;21.00;;;;;;4981008;28;20421;-72
2022/07/26 10:02:59;;;;;;;5.97;3.30;;;26.10;21.30;;;;;;4963469;28;20808;-72
2022/07/26 10:05:25;;;;;;;11.63;3.30;;;26.30;21.50;;;;;;4979247;28;20527;-73
2022/07/26 10:07:51;;;;;;;5.70;3.00;;;26.30;20.90;;;;;;4983511;28;20812;-73
2022/07/26 10:10:25;;;;;;;6.33;3.10;;;25.50;21.90;;;;;;4977597;28;20436;-73
2022/07/26 10:12:51;;;;;;;4.47;2.90;;;25.20;22.40;;;;;;4975508;28;20554;-73
2022/07/26 10:15:36;;;;;;;6.10;3.03;;;25.40;22.30;;;;;;4973568;28;20461;-73
2022/07/26 10:18:04;;;;;;;8.20;3.10;;;25.50;21.30;;;;;;4981204;28;20514;-74
2022/07/26 10:20:38;;;;;;;5.57;3.20;;;25.20;21.50;;;;;;4985059;28;20420;-73
2022/07/26 10:23:24;;;;;;;5.10;3.10;;;25.30;20.60;;;;;;4975387;28;20920;-73
2022/07/26 10:25:50;;;;;;;4.10;2.70;;;26.10;20.00;;;;;;4983891;28;20455;-74
2022/07/26 10:28:25;;;;;;;5.83;2.70;;;26.50;20.60;;;;;;4983089;28;20484;-73
2022/07/26 10:30:51;;;;;;;6.00;3.27;;;25.70;20.40;;;;;;4986398;28;20307;-73
2022/07/26 10:33:21;;;;;;;5.60;3.70;;;25.60;20.50;;;;;;4974583;28;20430;-73
2022/07/26 10:35:47;;;;;;;11.10;2.90;;;25.90;20.20;;;;;;4972934;28;20529;-72
2022/07/26 10:38:24;;;;;;;8.90;3.10;;;26.10;20.40;;;;;;4980906;28;20905;-73
2022/07/26 10:41:08;;;;;;;6.40;3.53;;;26.30;20.40;;;;;;4979030;28;20194;-73
2022/07/26 10:43:34;;;;;;;7.13;2.90;;;26.50;18.60;;;;;;4980362;28;20426;-73
2022/07/26 10:46:15;;;;;;;12.93;3.30;;;25.90;20.10;;;;;;4985389;28;20452;-73
2022/07/26 10:49:05;;;;;;;6.87;3.27;;;25.80;19.90;;;;;;4981177;28;20487;-73
2022/07/26 10:51:35;;;;;;;5.10;3.17;;;25.40;19.80;;;;;;4980364;28;20460;-73
2022/07/26 10:54:04;;;;;;;4.00;2.50;;;25.50;19.90;;;;;;4983995;28;20479;-73
2022/07/26 10:56:30;;;;;;;5.00;2.70;;;26.00;19.00;;;;;;4976841;28;20544;-72
2022/07/26 10:58:56;;;;;;;3.43;2.40;;;26.70;19.00;;;;;;4980639;28;21029;-73
2022/07/26 11:01:22;;;;;;;3.93;2.90;;;26.70;18.50;;;;;;4978487;28;20209;-74
2022/07/26 11:03:47;;;;;;;2.70;2.50;;;26.70;18.90;;;;;;4982435;28;20645;-73
2022/07/26 11:06:18;;;;;;;7.43;2.67;;;27.10;18.40;;;;;;4986734;28;20178;-73
2022/07/26 11:08:46;;;;;;;5.57;3.03;;;27.50;18.20;;;;;;4980242;28;20192;-75
2022/07/26 11:11:12;;;;;;;7.17;2.60;;;27.30;18.10;;;;;;4981652;28;20437;-73
2022/07/26 11:13:39;;;;;;;5.53;2.87;;;27.10;17.40;;;;;;4976798;28;20492;-73
2022/07/26 11:16:07;;;;;;;4.33;2.77;;;26.60;18.40;;;;;;4973942;28;20429;-74
2022/07/26 11:18:37;;;;;;;9.03;3.03;;;26.50;18.30;;;;;;4983342;28;20472;-73
2022/07/26 11:21:13;;;;;;;3.60;2.80;;;26.50;17.60;;;;;;4981301;28;20547;-73
2022/07/26 11:23:44;;;;;;;6.03;2.53;;;26.30;18.50;;;;;;4980337;28;20536;-73
2022/07/26 11:26:18;;;;;;;4.00;2.57;;;26.80;17.30;;;;;;4981134;28;20520;-73
2022/07/26 11:28:58;;;;;;;5.03;2.50;;;26.50;18.20;;;;;;4985722;28;20528;-73
2022/07/26 11:31:32;;;;;;;6.20;3.30;;;26.70;17.90;;;;;;4987125;28;20463;-73
2022/07/26 11:33:57;;;;;;;15.07;3.37;;;27.00;18.40;;;;;;4986731;28;20439;-74
2022/07/26 11:36:41;;;;;;;13.10;2.63;;;27.10;18.70;;;;;;4975073;28;20921;-73
2022/07/26 11:39:12;;;;;;;5.17;2.93;;;28.50;16.30;;;;;;4983473;28;20256;-73
2022/07/26 11:41:40;;;;;;;4.90;2.70;;;29.30;15.30;;;;;;4982575;28;20543;-73
2022/07/26 11:44:05;;;;;;;3.60;2.57;;;28.90;15.90;;;;;;4976684;28;20917;-73
2022/07/26 11:46:46;;;;;;;5.77;2.73;;;28.90;15.20;;;;;;4964274;28;20492;-73
2022/07/26 11:49:12;;;;;;;3.70;2.60;;;29.10;14.90;;;;;;4986629;28;20268;-73
2022/07/26 11:51:38;;;;;;;3.40;2.43;;;29.60;13.90;;;;;;4983158;28;20468;-73
2022/07/26 11:54:04;;;;;;;4.30;2.43;;;29.60;14.80;;;;;;4983623;28;20429;-73
2022/07/26 11:56:31;;;;;;;3.50;2.57;;;29.40;14.30;;;;;;4983323;28;20190;-73
2022/07/26 11:58:57;;;;;;;6.60;2.30;;;29.30;14.20;;;;;;4984078;28;20469;-73
2022/07/26 12:01:24;;;;;;;4.73;2.40;;;29.00;14.80;;;;;;4983477;28;20484;-73
2022/07/26 12:03:52;;;;;;;5.20;2.80;;;28.90;14.80;;;;;;4983246;28;20425;-74
2022/07/26 12:06:20;;;;;;;3.40;2.70;;;28.50;15.00;;;;;;4976086;28;20429;-73
2022/07/26 12:08:48;;;;;;;4.70;2.60;;;28.10;15.50;;;;;;4991242;28;20769;-73
2022/07/26 12:11:16;;;;;;;5.80;2.50;;;28.20;15.40;;;;;;4979326;28;20441;-72
2022/07/26 12:13:55;;;;;;;4.13;2.43;;;28.30;15.00;;;;;;4982717;28;20531;-73
2022/07/26 12:16:43;;;;;;;4.07;2.33;;;29.30;14.50;;;;;;4981010;28;20416;-73
2022/07/26 12:19:16;;;;;;;5.23;2.33;;;28.00;15.20;;;;;;4968133;28;20867;-73
2022/07/26 12:21:47;;;;;;;3.40;2.40;;;26.90;16.40;;;;;;4982030;28;20475;-73
2022/07/26 12:24:54;;;;;;;6.30;2.53;;;26.90;17.30;;;;;;4979745;28;20516;-73
2022/07/26 12:27:31;;;;;;;6.40;2.80;;;27.60;15.90;;;;;;4985969;28;20481;-72
2022/07/26 12:30:00;;;;;;;8.73;2.57;;;27.70;15.10;;;;;;4978163;28;20948;-73
2022/07/26 12:32:34;;;;;;;4.97;2.60;;;27.80;15.00;;;;;;4981232;28;20445;-73
2022/07/26 12:35:04;;;;;;;6.57;2.50;;;28.10;14.70;;;;;;4975945;28;20425;-73
2022/07/26 12:37:33;;;;;;;7.70;2.70;;;28.30;15.30;;;;;;4981312;28;21019;-74
2022/07/26 12:40:10;;;;;;;6.23;2.37;;;28.90;14.70;;;;;;4983061;28;20457;-73
2022/07/26 12:42:41;;;;;;;4.83;2.83;;;29.20;14.00;;;;;;4980044;28;20460;-73
2022/07/26 12:45:10;;;;;;;3.10;2.40;;;29.40;13.50;;;;;;4985205;28;20417;-73
2022/07/26 12:47:37;;;;;;;3.57;2.20;;;29.50;14.10;;;;;;4986081;28;20432;-74
2022/07/26 12:50:04;;;;;;;3.90;2.50;;;29.00;14.00;;;;;;4986249;28;20632;-73
2022/07/26 12:52:30;;;;;;;4.20;2.40;;;29.10;14.60;;;;;;4989298;28;20540;-73
2022/07/26 12:54:56;;;;;;;3.53;2.10;;;29.30;14.70;;;;;;4982299;28;20925;-73